Time;durP1;ratioP1;P1;durP2;ratioP2;P2;SDS_P1;SDS_P2;PMS_P1;PMS_P2;Temp;Humidity;BMP_temperature;BMP_pressure;BME280_temperature;BME280_humidity;BME280_pressure;Samples;Min_cycle;Max_cycle;Signal;HPM_P1;HPM_P2
2023/02/11 00:00:07;;;;;;;69.57;34.40;;;-2.50;99.90;;;;;;4997849;28;20056;-78
2023/02/11 00:02:33;;;;;;;71.90;36.38;;;-2.50;99.90;;;;;;4997415;28;20063;-79
2023/02/11 00:05:02;;;;;;;70.32;34.60;;;-2.60;99.90;;;;;;4997214;28;20104;-80
2023/02/11 00:07:29;;;;;;;70.60;32.65;;;-2.60;99.90;;;;;;5015031;28;20487;-77
2023/02/11 00:09:54;;;;;;;74.60;34.55;;;-2.70;99.90;;;;;;5014920;28;20049;-77
2023/02/11 00:12:20;;;;;;;73.70;35.78;;;-2.70;99.90;;;;;;5014606;28;20034;-77
2023/02/11 00:14:46;;;;;;;75.00;33.58;;;-2.70;99.90;;;;;;4993669;28;20551;-77
2023/02/11 00:17:12;;;;;;;69.30;33.22;;;-2.70;99.90;;;;;;4986434;28;20480;-78
2023/02/11 00:19:37;;;;;;;72.78;36.53;;;-2.80;99.90;;;;;;4989595;28;20022;-78
2023/02/11 00:22:03;;;;;;;73.25;34.65;;;-2.80;99.90;;;;;;4993857;28;20439;-78
2023/02/11 00:24:29;;;;;;;70.85;34.88;;;-2.80;99.90;;;;;;4993784;28;20030;-78
2023/02/11 00:26:54;;;;;;;70.43;34.88;;;-2.80;99.90;;;;;;4994148;28;20018;-79
2023/02/11 00:29:20;;;;;;;68.10;34.58;;;-2.90;99.90;;;;;;4993681;28;20022;-80
2023/02/11 00:31:46;;;;;;;69.07;34.90;;;-2.90;99.90;;;;;;4994924;28;20075;-78
2023/02/11 00:34:12;;;;;;;81.10;37.50;;;-2.90;99.90;;;;;;4994918;28;20064;-79
2023/02/11 00:36:38;;;;;;;71.10;32.42;;;-2.90;99.90;;;;;;4993670;28;20026;-78
2023/02/11 00:39:04;;;;;;;76.43;35.40;;;-3.00;99.90;;;;;;4993434;28;20110;-78
2023/02/11 00:41:30;;;;;;;62.33;30.90;;;-3.00;99.90;;;;;;4993498;28;20070;-79
2023/02/11 00:43:56;;;;;;;69.53;35.13;;;-3.00;99.90;;;;;;4993099;28;20093;-80
2023/02/11 00:46:21;;;;;;;73.72;34.45;;;-3.00;99.90;;;;;;4994680;28;20468;-80
2023/02/11 00:48:47;;;;;;;73.10;34.55;;;-3.10;99.90;;;;;;4991481;28;20112;-80
2023/02/11 00:51:13;;;;;;;64.50;34.90;;;-3.10;99.90;;;;;;4983773;28;20015;-79
2023/02/11 00:53:39;;;;;;;68.30;32.22;;;-3.10;99.90;;;;;;4995008;28;20030;-79
2023/02/11 00:56:05;;;;;;;73.85;34.95;;;-3.20;99.90;;;;;;4994686;28;20101;-79
2023/02/11 00:58:31;;;;;;;71.65;33.92;;;-3.20;99.90;;;;;;4993328;28;20399;-79
2023/02/11 01:00:56;;;;;;;78.10;35.72;;;-3.20;99.90;;;;;;4994614;28;20026;-79
2023/02/11 01:03:22;;;;;;;67.53;31.42;;;-3.20;99.90;;;;;;4993692;28;20031;-80
2023/02/11 01:05:48;;;;;;;76.05;34.88;;;-3.20;99.90;;;;;;4994508;28;20042;-79
2023/02/11 01:08:13;;;;;;;72.15;34.72;;;-3.20;99.90;;;;;;4994508;28;20072;-79
2023/02/11 01:10:39;;;;;;;75.65;34.78;;;-3.30;99.90;;;;;;4994451;28;20039;-79
2023/02/11 01:13:05;;;;;;;66.90;35.03;;;-3.30;99.90;;;;;;4993381;28;20109;-79
2023/02/11 01:15:31;;;;;;;70.10;32.80;;;-3.30;99.90;;;;;;4993346;28;20401;-81
2023/02/11 01:17:57;;;;;;;69.75;32.60;;;-3.20;99.90;;;;;;4994093;28;20149;-81
2023/02/11 01:20:25;;;;;;;70.28;31.27;;;-3.30;99.90;;;;;;4993198;28;20030;-80
2023/02/11 01:22:51;;;;;;;74.20;34.10;;;-3.20;99.90;;;;;;4993902;28;20022;-80
2023/02/11 01:25:16;;;;;;;70.10;31.98;;;-3.30;99.90;;;;;;4994057;28;20073;-80
2023/02/11 01:27:42;;;;;;;67.90;32.63;;;-3.20;99.90;;;;;;4993159;28;20077;-78
2023/02/11 01:30:10;;;;;;;70.65;33.83;;;-3.30;99.90;;;;;;4994163;28;20033;-78
2023/02/11 01:32:36;;;;;;;72.03;35.17;;;-3.30;99.90;;;;;;4994065;28;20027;-79
2023/02/11 01:35:02;;;;;;;76.50;36.53;;;-3.40;99.90;;;;;;4993677;28;20049;-78
2023/02/11 01:37:27;;;;;;;68.47;33.15;;;-3.40;99.90;;;;;;4998004;28;20500;-78
2023/02/11 01:39:53;;;;;;;68.70;34.38;;;-3.40;99.90;;;;;;5012341;28;20036;-78
2023/02/11 01:42:21;;;;;;;68.63;33.08;;;-3.40;99.90;;;;;;5013365;28;20114;-78
2023/02/11 01:44:52;;;;;;;67.93;34.47;;;-3.50;99.90;;;;;;5012365;28;20057;-79
2023/02/11 01:47:18;;;;;;;63.65;32.28;;;-3.50;99.90;;;;;;5013421;28;20065;-78
2023/02/11 01:50:00;;;;;;;67.57;32.47;;;-3.50;99.90;;;;;;5011903;28;20118;-79
2023/02/11 01:52:35;;;;;;;69.75;31.08;;;-3.50;99.90;;;;;;5012339;28;20026;-79
2023/02/11 01:57:58;;;;;;;66.78;31.77;;;-3.50;99.90;;;;;;5013508;28;20048;-80
2023/02/11 02:00:32;;;;;;;66.30;31.60;;;-3.50;99.90;;;;;;5012385;28;20073;-79
2023/02/11 02:03:00;;;;;;;64.82;32.03;;;-3.40;99.90;;;;;;5011984;28;20050;-78
2023/02/11 02:05:51;;;;;;;71.22;33.38;;;-3.40;99.90;;;;;;5013390;28;20080;-78
2023/02/11 02:08:28;;;;;;;69.40;35.70;;;-3.40;99.90;;;;;;5013270;28;20029;-79
2023/02/11 02:10:55;;;;;;;65.50;31.65;;;-3.30;99.90;;;;;;5011662;28;20049;-80
2023/02/11 02:13:22;;;;;;;66.38;31.10;;;-3.30;99.90;;;;;;5013070;28;20053;-81
2023/02/11 02:15:53;;;;;;;64.80;32.40;;;-3.20;99.90;;;;;;5031682;28;20058;-80
2023/02/11 02:18:37;;;;;;;66.65;32.92;;;-3.20;99.90;;;;;;4998859;28;20026;-80
2023/02/11 02:21:21;;;;;;;61.70;31.95;;;-3.20;99.90;;;;;;5033329;28;20072;-80
2023/02/11 02:24:01;;;;;;;63.08;29.67;;;-3.20;99.90;;;;;;5015284;28;20116;-80
2023/02/11 02:26:52;;;;;;;65.20;30.77;;;-3.20;99.90;;;;;;5032797;28;20026;-79
2023/02/11 02:29:43;;;;;;;65.05;31.42;;;-3.10;99.90;;;;;;5032661;28;20068;-80
2023/02/11 02:32:42;;;;;;;64.28;32.10;;;-3.10;99.90;;;;;;5033193;28;20018;-79
2023/02/11 02:35:28;;;;;;;65.70;31.58;;;-3.10;99.90;;;;;;5032806;28;20041;-79
2023/02/11 02:38:00;;;;;;;60.95;31.35;;;-3.10;99.90;;;;;;5032697;28;20052;-79
2023/02/11 02:40:50;;;;;;;66.78;31.23;;;-3.00;99.90;;;;;;5032847;28;20025;-79
2023/02/11 02:43:16;;;;;;;67.32;30.52;;;-3.00;99.90;;;;;;5013867;28;20064;-79
2023/02/11 02:45:42;;;;;;;66.53;31.95;;;-3.00;99.90;;;;;;5032818;28;20035;-79
2023/02/11 02:48:29;;;;;;;64.03;34.47;;;-3.00;99.90;;;;;;5032744;28;20096;-80
2023/02/11 02:51:05;;;;;;;63.08;30.17;;;-3.00;99.90;;;;;;5015400;28;20056;-81
2023/02/11 02:53:48;;;;;;;65.40;30.75;;;-3.00;99.90;;;;;;5032591;28;20114;-80
2023/02/11 02:56:23;;;;;;;;;;;-3.00;99.90;;;;;;5015384;28;20087;-81
2023/02/11 02:59:17;;;;;;;61.45;31.15;;;-3.00;99.90;;;;;;5032206;28;19955;-80
2023/02/11 03:02:06;;;;;;;68.35;31.60;;;-3.00;99.90;;;;;;5032709;28;20057;-80
2023/02/11 03:04:45;;;;;;;66.65;32.47;;;-3.00;99.90;;;;;;5014575;28;20091;-79
2023/02/11 03:07:25;;;;;;;70.50;35.55;;;-2.90;99.90;;;;;;5032424;28;20029;-80
2023/02/11 03:09:55;;;;;;;68.10;32.33;;;-2.90;99.90;;;;;;5032698;28;20096;-80
2023/02/11 03:12:23;;;;;;;65.55;30.23;;;-2.90;99.90;;;;;;5035481;28;20022;-79
2023/02/11 03:14:51;;;;;;;71.63;34.25;;;-2.90;99.90;;;;;;5035672;28;20520;-79
2023/02/11 03:17:17;;;;;;;74.95;31.45;;;-2.90;99.90;;;;;;5017930;28;20017;-79
2023/02/11 03:19:45;;;;;;;65.97;33.20;;;-2.90;99.90;;;;;;5035576;28;20080;-80
2023/02/11 03:22:19;;;;;;;63.25;31.60;;;-2.90;99.90;;;;;;5017927;28;20398;-79
2023/02/11 03:24:45;;;;;;;65.15;32.58;;;-2.90;99.90;;;;;;5035691;28;20075;-79
2023/02/11 03:27:37;;;;;;;62.47;31.05;;;-2.80;99.90;;;;;;5035791;28;20021;-80
2023/02/11 03:30:15;;;;;;;56.33;29.48;;;-2.80;99.90;;;;;;5017749;28;20068;-81
2023/02/11 03:32:57;;;;;;;57.05;29.33;;;-2.80;99.90;;;;;;5035619;28;20025;-80
2023/02/11 03:35:30;;;;;;;66.30;31.10;;;-2.80;99.90;;;;;;5018066;28;20087;-81
2023/02/11 03:38:06;;;;;;;64.80;33.28;;;-2.80;99.90;;;;;;5017707;28;20029;-78
2023/02/11 03:40:36;;;;;;;62.17;31.77;;;-2.80;99.90;;;;;;5035581;28;20029;-77
2023/02/11 03:43:16;;;;;;;58.70;30.27;;;-2.70;99.90;;;;;;5035707;28;20060;-77
2023/02/11 03:45:43;;;;;;;58.25;29.25;;;-2.80;99.90;;;;;;5035688;28;20025;-80
2023/02/11 03:48:38;;;;;;;56.58;28.80;;;-2.70;99.90;;;;;;5035157;28;20526;-79
2023/02/11 03:51:06;;;;;;;61.72;29.02;;;-2.70;99.90;;;;;;5035565;28;20497;-79
2023/02/11 03:53:32;;;;;;;68.18;29.60;;;-2.70;99.90;;;;;;5034948;28;20041;-78
2023/02/11 03:56:00;;;;;;;55.38;26.45;;;-2.70;99.90;;;;;;5035357;28;20041;-78
2023/02/11 03:58:26;;;;;;;61.63;30.45;;;-2.70;99.90;;;;;;5017221;28;20026;-78
2023/02/11 04:00:51;;;;;;;50.33;27.00;;;-2.60;99.90;;;;;;5035273;28;20096;-78
2023/02/11 04:03:17;;;;;;;58.13;27.65;;;-2.60;99.90;;;;;;5034891;28;20028;-78
2023/02/11 04:05:43;;;;;;;47.63;26.00;;;-2.60;99.90;;;;;;5017312;28;20029;-79
2023/02/11 04:08:09;;;;;;;50.35;26.17;;;-2.50;99.90;;;;;;5017101;28;20029;-77
2023/02/11 04:10:35;;;;;;;56.65;26.83;;;-2.50;99.90;;;;;;5034797;28;20445;-79
2023/02/11 04:13:00;;;;;;;51.83;26.23;;;-2.40;99.90;;;;;;5034659;28;20398;-80
2023/02/11 04:15:26;;;;;;;47.33;23.95;;;-2.40;99.90;;;;;;5013814;28;20054;-79
2023/02/11 04:17:51;;;;;;;52.30;25.83;;;-2.30;99.90;;;;;;5015481;28;20022;-79
2023/02/11 04:20:17;;;;;;;48.05;24.20;;;-2.20;99.90;;;;;;5014961;28;20026;-79
2023/02/11 04:22:43;;;;;;;53.40;24.73;;;-2.20;99.90;;;;;;5013290;28;20025;-79
2023/02/11 04:25:09;;;;;;;53.47;23.92;;;-2.20;99.90;;;;;;5013483;28;20029;-78
2023/02/11 04:27:36;;;;;;;48.58;23.88;;;-2.10;99.90;;;;;;5014868;28;20049;-78
2023/02/11 04:30:02;;;;;;;52.70;25.48;;;-2.10;99.90;;;;;;5013361;28;20021;-78
2023/02/11 04:32:27;;;;;;;54.17;24.40;;;-2.10;99.90;;;;;;5015218;28;20052;-78
2023/02/11 04:34:54;;;;;;;44.75;23.42;;;-2.10;99.90;;;;;;5014723;28;20487;-78
2023/02/11 04:37:20;;;;;;;44.10;24.02;;;-2.10;99.90;;;;;;5014746;28;20510;-79
2023/02/11 04:39:46;;;;;;;44.00;24.23;;;-2.10;99.90;;;;;;5013323;28;20049;-79
2023/02/11 04:42:12;;;;;;;48.00;23.50;;;-2.00;99.90;;;;;;5014679;28;20382;-79
2023/02/11 04:44:38;;;;;;;48.20;24.80;;;-2.00;99.90;;;;;;5013199;28;20080;-78
2023/02/11 04:47:03;;;;;;;42.28;22.15;;;-2.00;99.90;;;;;;5014844;28;20053;-80
2023/02/11 04:49:29;;;;;;;46.55;23.63;;;-2.00;99.90;;;;;;5012763;28;20030;-80
2023/02/11 04:51:55;;;;;;;49.42;24.08;;;-2.00;99.90;;;;;;5013363;28;20049;-78
2023/02/11 04:54:20;;;;;;;46.13;23.67;;;-2.00;99.90;;;;;;5014125;28;20105;-78
2023/02/11 04:56:48;;;;;;;45.92;23.00;;;-2.00;99.90;;;;;;5014749;28;20056;-78
2023/02/11 04:59:14;;;;;;;45.25;22.48;;;-2.00;99.90;;;;;;5013213;28;20372;-78
2023/02/11 05:01:39;;;;;;;47.10;24.15;;;-2.00;99.90;;;;;;5013104;28;20033;-78
2023/02/11 05:04:05;;;;;;;54.08;24.88;;;-2.00;99.90;;;;;;5008743;28;20034;-80
2023/02/11 05:06:31;;;;;;;48.10;23.60;;;-2.00;99.90;;;;;;4973890;28;20458;-79
2023/02/11 05:08:56;;;;;;;45.88;22.80;;;-2.00;99.90;;;;;;4980098;28;20084;-79
2023/02/11 05:11:24;;;;;;;46.83;23.45;;;-2.00;99.90;;;;;;4993291;28;20063;-79
2023/02/11 05:13:50;;;;;;;50.58;25.23;;;-2.00;99.90;;;;;;4996851;28;20387;-79
2023/02/11 05:16:17;;;;;;;42.80;24.38;;;-2.00;99.90;;;;;;4996858;28;20411;-79
2023/02/11 05:18:43;;;;;;;41.13;22.35;;;-1.90;99.90;;;;;;5014038;28;20026;-80
2023/02/11 05:21:12;;;;;;;46.15;23.67;;;-2.00;99.90;;;;;;4996753;28;20037;-79
2023/02/11 05:23:38;;;;;;;46.30;23.38;;;-2.00;99.90;;;;;;4996265;28;20029;-78
2023/02/11 05:26:04;;;;;;;38.35;21.83;;;-2.00;99.90;;;;;;4996276;28;20037;-78
2023/02/11 05:28:30;;;;;;;45.20;23.95;;;-2.00;99.90;;;;;;4996298;28;20460;-78
2023/02/11 05:30:55;;;;;;;47.58;23.20;;;-2.00;99.90;;;;;;4992999;28;20026;-78
2023/02/11 05:33:21;;;;;;;44.28;24.27;;;-2.00;99.90;;;;;;4992930;28;20030;-78
2023/02/11 05:35:47;;;;;;;42.00;22.58;;;-2.00;99.90;;;;;;4995195;28;20033;-78
2023/02/11 05:38:13;;;;;;;45.90;22.90;;;-1.90;99.90;;;;;;5013806;28;20077;-78
2023/02/11 05:40:39;;;;;;;41.50;22.13;;;-2.00;99.90;;;;;;4996078;28;20130;-78
2023/02/11 05:43:04;;;;;;;46.38;23.33;;;-1.90;99.90;;;;;;4996108;28;20061;-79
2023/02/11 05:45:30;;;;;;;45.13;23.13;;;-1.90;99.90;;;;;;5013681;28;20394;-79
2023/02/11 05:47:56;;;;;;;43.90;22.85;;;-2.00;99.90;;;;;;4996292;28;20479;-78
2023/02/11 05:50:22;;;;;;;43.92;22.13;;;-2.00;99.90;;;;;;4995894;28;20014;-78
2023/02/11 05:52:47;;;;;;;47.42;24.55;;;-1.90;99.90;;;;;;5013602;28;20491;-78
2023/02/11 05:55:13;;;;;;;44.17;22.17;;;-1.90;99.90;;;;;;4995657;28;20033;-80
2023/02/11 05:57:39;;;;;;;47.15;23.95;;;-2.00;99.90;;;;;;5013404;28;20044;-79
2023/02/11 06:00:05;;;;;;;45.30;22.75;;;-1.90;99.90;;;;;;5013371;28;20486;-77
2023/02/11 06:02:31;;;;;;;43.17;21.92;;;-2.00;99.90;;;;;;5013625;28;20433;-77
2023/02/11 06:04:56;;;;;;;47.65;21.00;;;-1.90;99.90;;;;;;5013474;28;20109;-77
2023/02/11 06:07:22;;;;;;;47.85;21.90;;;-2.00;99.90;;;;;;4995916;28;20387;-77
2023/02/11 06:09:47;;;;;;;41.15;21.33;;;-2.00;99.90;;;;;;5013710;28;20176;-77
2023/02/11 06:12:13;;;;;;;43.17;23.70;;;-2.00;99.90;;;;;;5013479;28;20033;-77
2023/02/11 06:14:39;;;;;;;40.88;22.45;;;-2.00;99.90;;;;;;5013301;28;20108;-79
2023/02/11 06:17:04;;;;;;;76.90;30.75;;;-2.00;99.90;;;;;;5013407;28;20025;-79
2023/02/11 06:19:30;;;;;;;49.78;21.98;;;-2.00;99.90;;;;;;5013498;28;20427;-79
2023/02/11 06:21:56;;;;;;;44.03;23.98;;;-2.00;99.90;;;;;;5009730;28;20034;-79
2023/02/11 06:24:22;;;;;;;43.42;21.60;;;-2.00;99.90;;;;;;5003803;28;20014;-79
2023/02/11 06:26:48;;;;;;;42.13;21.30;;;-1.90;99.90;;;;;;4985845;28;20056;-80
2023/02/11 06:29:13;;;;;;;68.05;32.97;;;-1.90;99.90;;;;;;4986103;28;20033;-79
2023/02/11 06:31:39;;;;;;;43.67;21.52;;;-1.90;99.90;;;;;;5000433;28;20030;-80
2023/02/11 06:34:06;;;;;;;42.28;23.05;;;-1.90;99.90;;;;;;4982128;28;20101;-81
2023/02/11 06:36:32;;;;;;;75.13;33.65;;;-1.90;99.90;;;;;;5001914;28;20045;-80
2023/02/11 06:38:58;;;;;;;48.75;23.67;;;-1.90;99.90;;;;;;4984056;28;20024;-82
2023/02/11 06:41:24;;;;;;;47.92;22.90;;;-1.90;99.90;;;;;;5000959;28;20054;-82
2023/02/11 06:43:51;;;;;;;53.03;22.77;;;-1.90;99.90;;;;;;4986085;28;20037;-81
2023/02/11 06:46:16;;;;;;;46.45;22.38;;;-1.80;99.90;;;;;;5002112;28;20031;-81
2023/02/11 06:48:42;;;;;;;52.67;25.30;;;-1.80;99.90;;;;;;5006203;28;20018;-81
2023/02/11 06:51:09;;;;;;;67.72;29.83;;;-1.80;99.90;;;;;;5001364;28;20030;-81
2023/02/11 06:53:41;;;;;;;55.67;22.98;;;-1.80;99.90;;;;;;4988897;28;20026;-80
2023/02/11 06:56:10;;;;;;;37.90;20.13;;;-1.80;99.90;;;;;;5005881;28;20050;-78
2023/02/11 06:58:36;;;;;;;39.30;19.25;;;-1.70;99.90;;;;;;5005520;28;20383;-81
2023/02/11 07:01:06;;;;;;;38.55;20.55;;;-1.70;99.90;;;;;;4993552;28;20022;-80
2023/02/11 07:03:35;;;;;;;43.13;21.88;;;-1.60;99.90;;;;;;4992270;28;20104;-81
2023/02/11 07:06:04;;;;;;;34.83;18.52;;;-1.60;99.90;;;;;;5007395;28;20029;-80
2023/02/11 07:08:31;;;;;;;36.15;20.17;;;-1.70;99.90;;;;;;4990577;28;20030;-81
2023/02/11 07:10:56;;;;;;;44.05;21.15;;;-1.60;99.90;;;;;;5001732;28;20380;-78
2023/02/11 07:13:22;;;;;;;43.58;21.92;;;-1.60;99.90;;;;;;5001361;28;20028;-79
2023/02/11 07:15:48;;;;;;;38.50;22.42;;;-1.50;99.90;;;;;;5011709;28;20058;-79
2023/02/11 07:18:14;;;;;;;40.40;19.80;;;-1.50;99.90;;;;;;4996495;28;20018;-78
2023/02/11 07:20:39;;;;;;;42.10;20.38;;;-1.50;99.90;;;;;;5014370;28;20083;-79
2023/02/11 07:23:05;;;;;;;40.40;21.27;;;-1.50;99.90;;;;;;5017670;28;20487;-80
2023/02/11 07:25:30;;;;;;;35.55;19.30;;;-1.50;99.90;;;;;;4990520;28;20026;-79
2023/02/11 07:27:56;;;;;;;39.20;19.77;;;-1.40;99.90;;;;;;4996717;28;20032;-80
2023/02/11 07:30:21;;;;;;;43.10;21.20;;;-1.40;99.90;;;;;;5009149;28;20136;-80
2023/02/11 07:32:47;;;;;;;38.25;20.65;;;-1.40;99.90;;;;;;4997733;28;20058;-80
2023/02/11 07:35:13;;;;;;;45.15;21.83;;;-1.30;99.90;;;;;;5015357;28;20068;-80
2023/02/11 07:37:40;;;;;;;37.35;20.15;;;-1.30;99.90;;;;;;5015605;28;20072;-80
2023/02/11 07:40:06;;;;;;;44.08;22.45;;;-1.20;99.90;;;;;;5015676;28;20026;-80
2023/02/11 07:42:34;;;;;;;47.10;22.33;;;-1.00;99.90;;;;;;5015533;28;20033;-80
2023/02/11 07:44:59;;;;;;;41.38;20.00;;;-0.90;99.90;;;;;;5015394;28;20038;-81
2023/02/11 07:47:25;;;;;;;44.17;21.58;;;-0.80;99.90;;;;;;4997220;28;20117;-81
2023/02/11 07:49:51;;;;;;;40.67;21.95;;;-0.80;99.90;;;;;;4992045;28;20053;-81
2023/02/11 07:52:16;;;;;;;36.22;19.17;;;-0.80;99.90;;;;;;4997692;28;20537;-81
2023/02/11 07:54:42;;;;;;;43.85;21.45;;;-0.60;99.90;;;;;;5015425;28;20221;-80
2023/02/11 07:57:08;;;;;;;43.03;20.45;;;-0.50;99.90;;;;;;5005858;28;20368;-81
2023/02/11 07:59:33;;;;;;;35.20;20.15;;;-0.50;98.90;;;;;;5000994;28;20653;-81
2023/02/11 08:01:59;;;;;;;40.35;20.25;;;-0.50;98.60;;;;;;5003060;28;20032;-81
2023/02/11 08:04:25;;;;;;;46.10;21.13;;;-0.40;99.20;;;;;;4985448;28;20696;-81
2023/02/11 08:06:51;;;;;;;36.17;19.48;;;-0.30;99.10;;;;;;4990907;28;20025;-81
2023/02/11 08:09:17;;;;;;;39.25;20.58;;;-0.30;98.30;;;;;;4995692;28;20026;-81
2023/02/11 08:11:43;;;;;;;37.85;19.58;;;-0.30;97.00;;;;;;4995761;28;20511;-81
2023/02/11 08:14:09;;;;;;;35.65;19.35;;;-0.20;97.20;;;;;;4997201;28;20116;-81
2023/02/11 08:16:36;;;;;;;38.17;20.15;;;-0.10;97.00;;;;;;4997257;28;20034;-81
2023/02/11 08:19:09;;;;;;;36.97;18.92;;;-0.10;95.90;;;;;;4990343;28;20072;-81
2023/02/11 08:21:34;;;;;;;;;;;0.10;94.30;;;;;;4987399;28;20038;-81
2023/02/11 08:24:02;;;;;;;35.25;18.60;;;0.20;92.50;;;;;;4985553;28;19976;-81
2023/02/11 08:26:30;;;;;;;40.33;21.15;;;0.40;91.30;;;;;;4997001;28;20021;-81
2023/02/11 08:28:56;;;;;;;41.55;20.17;;;0.60;90.00;;;;;;5007567;28;20028;-81
2023/02/11 08:31:25;;;;;;;37.05;19.05;;;0.70;88.80;;;;;;4994015;28;20112;-81
2023/02/11 08:33:53;;;;;;;33.53;19.35;;;0.70;87.40;;;;;;4991318;28;20060;-81
2023/02/11 08:36:22;;;;;;;35.17;20.85;;;0.70;87.50;;;;;;5004450;28;20120;-82
2023/02/11 08:38:48;;;;;;;39.80;18.60;;;0.60;87.00;;;;;;5004088;28;20018;-81
2023/02/11 08:41:14;;;;;;;37.88;22.52;;;0.60;86.80;;;;;;5003787;28;20025;-82
2023/02/11 08:43:41;;;;;;;33.58;18.45;;;0.60;87.90;;;;;;5005947;28;20026;-81
2023/02/11 08:46:08;;;;;;;35.92;20.42;;;0.60;88.00;;;;;;5003624;28;20096;-81
2023/02/11 08:48:34;;;;;;;35.30;19.67;;;0.60;87.60;;;;;;4986149;28;20427;-81
2023/02/11 08:51:04;;;;;;;38.53;19.95;;;0.70;88.20;;;;;;4992716;28;20129;-81
2023/02/11 08:53:30;;;;;;;36.15;20.15;;;0.70;88.90;;;;;;5013413;28;20030;-81
2023/02/11 08:55:55;;;;;;;33.13;20.92;;;0.70;88.40;;;;;;5011236;28;20391;-80
2023/02/11 08:58:21;;;;;;;34.38;18.95;;;0.80;87.70;;;;;;5011997;28;20100;-81
2023/02/11 09:00:47;;;;;;;34.78;20.23;;;0.90;87.30;;;;;;5007256;28;20502;-81
2023/02/11 09:03:14;;;;;;;37.97;19.08;;;1.00;87.10;;;;;;4995059;28;20026;-81
2023/02/11 09:05:47;;;;;;;56.72;27.00;;;1.00;87.10;;;;;;5004109;28;20081;-81
2023/02/11 09:08:13;;;;;;;44.58;22.10;;;1.00;86.40;;;;;;5002021;28;20028;-81
2023/02/11 09:10:39;;;;;;;62.88;30.48;;;1.00;85.20;;;;;;4993091;28;20580;-80
2023/02/11 09:13:06;;;;;;;49.33;23.52;;;1.00;85.50;;;;;;5013833;28;20030;-79
2023/02/11 09:15:31;;;;;;;53.00;24.50;;;1.10;85.10;;;;;;5013513;28;20050;-79
2023/02/11 09:17:57;;;;;;;56.65;29.42;;;1.10;84.70;;;;;;5013716;28;20036;-79
2023/02/11 09:20:25;;;;;;;49.30;23.25;;;1.00;84.60;;;;;;5009771;28;20067;-79
2023/02/11 09:22:50;;;;;;;53.40;27.08;;;1.00;84.40;;;;;;5033377;28;20032;-79
2023/02/11 09:25:16;;;;;;;43.92;26.50;;;1.00;84.90;;;;;;4978799;28;20046;-79
2023/02/11 09:27:42;;;;;;;38.63;20.88;;;1.10;85.10;;;;;;5013471;28;20030;-79
2023/02/11 09:30:08;;;;;;;46.38;23.55;;;1.10;85.20;;;;;;4960967;28;20038;-79
2023/02/11 09:32:33;;;;;;;38.85;21.25;;;1.10;84.80;;;;;;5013487;28;20026;-79
2023/02/11 09:34:59;;;;;;;34.72;19.75;;;1.20;85.70;;;;;;4990134;28;20050;-79
2023/02/11 09:37:25;;;;;;;42.08;23.58;;;1.30;85.40;;;;;;4985919;28;20101;-79
2023/02/11 09:39:51;;;;;;;42.45;21.27;;;1.30;84.50;;;;;;5007124;28;20053;-80
2023/02/11 09:42:54;;;;;;;39.10;21.20;;;1.30;83.50;;;;;;4992150;28;20030;-80
2023/02/11 09:45:24;;;;;;;37.50;20.85;;;1.30;84.10;;;;;;4984961;28;20041;-79
2023/02/11 09:48:12;;;;;;;43.03;22.58;;;1.40;83.40;;;;;;4984498;28;20568;-79
2023/02/11 09:50:46;;;;;;;40.25;22.13;;;1.40;83.10;;;;;;5003015;28;20026;-79
2023/02/11 09:53:19;;;;;;;44.85;22.00;;;1.60;82.50;;;;;;4986684;28;20060;-79
2023/02/11 09:55:49;;;;;;;38.50;21.83;;;1.60;81.90;;;;;;5008613;28;20502;-79
2023/02/11 09:58:15;;;;;;;40.83;20.98;;;1.70;82.60;;;;;;4995270;28;20018;-80
2023/02/11 10:01:07;;;;;;;38.28;21.00;;;1.80;81.80;;;;;;4995535;28;20045;-80
2023/02/11 10:03:38;;;;;;;42.10;21.42;;;1.80;80.50;;;;;;5012949;28;20399;-80
2023/02/11 10:06:13;;;;;;;43.55;21.15;;;1.80;81.00;;;;;;5012787;28;20105;-79
2023/02/11 10:08:58;;;;;;;38.33;20.88;;;1.80;80.50;;;;;;4995138;28;20479;-79
2023/02/11 10:11:35;;;;;;;43.08;22.80;;;1.80;80.70;;;;;;4996305;28;20026;-79
2023/02/11 10:14:25;;;;;;;47.58;23.50;;;2.00;81.00;;;;;;5012719;28;20076;-79
2023/02/11 10:17:00;;;;;;;50.35;23.67;;;2.00;81.40;;;;;;4995527;28;20111;-79
2023/02/11 10:19:56;;;;;;;47.97;24.20;;;2.10;80.80;;;;;;5012937;28;20148;-79
2023/02/11 10:22:27;;;;;;;59.00;29.65;;;2.20;80.30;;;;;;4998076;28;20034;-80
2023/02/11 10:24:59;;;;;;;55.10;28.05;;;2.30;79.80;;;;;;5016772;28;20026;-79
2023/02/11 10:27:33;;;;;;;51.70;25.00;;;2.30;79.80;;;;;;5016406;28;20430;-81
2023/02/11 10:30:14;;;;;;;61.20;28.00;;;2.30;79.70;;;;;;5011616;28;20022;-80
2023/02/11 10:33:02;;;;;;;63.15;30.40;;;2.30;79.80;;;;;;5005110;28;20113;-81
2023/02/11 10:35:27;;;;;;;48.58;24.67;;;2.40;79.80;;;;;;5004833;28;20034;-83
2023/02/11 10:37:57;;;;;;;41.58;23.85;;;2.50;79.60;;;;;;5015845;28;20085;-81
2023/02/11 10:40:28;;;;;;;48.22;23.55;;;2.50;79.60;;;;;;5008602;28;20025;-82
2023/02/11 10:42:58;;;;;;;44.75;22.60;;;2.60;79.30;;;;;;4983066;28;20026;-81
2023/02/11 10:45:37;;;;;;;52.03;25.98;;;2.70;78.90;;;;;;4988809;28;20018;-81
2023/02/11 10:48:05;;;;;;;40.03;21.23;;;2.90;78.90;;;;;;5016203;28;20521;-80
2023/02/11 10:50:33;;;;;;;37.72;20.63;;;3.00;77.80;;;;;;4997457;28;20472;-81
2023/02/11 10:53:19;;;;;;;44.65;21.77;;;3.10;78.00;;;;;;5012895;28;20030;-80
2023/02/11 10:55:56;;;;;;;35.22;20.20;;;3.20;77.30;;;;;;4998634;28;20025;-80
2023/02/11 10:58:27;;;;;;;49.28;24.60;;;3.20;76.80;;;;;;5016390;28;20100;-81
2023/02/11 11:00:55;;;;;;;47.33;23.65;;;3.20;76.20;;;;;;5010025;28;20033;-81
2023/02/11 11:03:27;;;;;;;47.55;22.98;;;3.20;75.80;;;;;;5015290;28;20018;-81
2023/02/11 11:06:01;;;;;;;55.20;25.45;;;3.00;75.50;;;;;;5015949;28;20088;-82
2023/02/11 11:08:41;;;;;;;43.50;22.50;;;2.90;76.50;;;;;;5016080;28;20068;-81
2023/02/11 11:11:10;;;;;;;38.70;21.15;;;2.80;77.50;;;;;;5010221;28;20399;-81
2023/02/11 11:13:39;;;;;;;39.08;20.77;;;2.60;77.90;;;;;;4986397;28;20018;-80
2023/02/11 11:16:16;;;;;;;38.35;22.90;;;2.60;78.50;;;;;;5007523;28;20097;-81
2023/02/11 11:18:44;;;;;;;34.85;19.83;;;2.40;79.00;;;;;;5001265;28;20026;-80
2023/02/11 11:21:19;;;;;;;39.92;22.23;;;2.50;79.60;;;;;;4992240;28;20414;-81
2023/02/11 11:23:57;;;;;;;38.70;20.77;;;2.40;80.10;;;;;;5015799;28;20033;-81
2023/02/11 11:26:26;;;;;;;34.00;19.67;;;2.30;81.10;;;;;;4987449;28;20018;-81
2023/02/11 11:28:59;;;;;;;38.50;21.95;;;2.40;81.70;;;;;;5007660;28;20113;-81
2023/02/11 11:31:33;;;;;;;39.55;22.90;;;2.50;81.30;;;;;;5008726;28;20022;-81
2023/02/11 11:34:02;;;;;;;42.22;23.60;;;2.40;80.70;;;;;;5007122;28;20392;-81
2023/02/11 11:36:37;;;;;;;40.72;21.67;;;2.40;81.10;;;;;;4990461;28;20192;-81
2023/02/11 11:39:34;;;;;;;44.35;22.83;;;2.40;81.90;;;;;;5006520;28;20045;-82
2023/02/11 11:42:20;;;;;;;44.13;23.58;;;2.40;82.20;;;;;;4992950;28;20069;-81
2023/02/11 11:44:59;;;;;;;45.97;24.42;;;2.30;83.10;;;;;;5013548;28;20025;-81
2023/02/11 11:47:51;;;;;;;39.78;21.55;;;2.30;84.50;;;;;;4995748;28;20411;-81
2023/02/11 11:50:38;;;;;;;48.83;23.98;;;2.20;85.80;;;;;;4995632;28;20048;-77
2023/02/11 11:53:30;;;;;;;44.90;22.73;;;2.10;87.90;;;;;;5014277;28;20030;-77
2023/02/11 11:56:00;;;;;;;40.00;22.27;;;2.00;89.70;;;;;;5014718;28;20048;-77
2023/02/11 11:58:28;;;;;;;46.15;23.40;;;2.00;91.80;;;;;;4997462;28;20096;-77
2023/02/11 12:01:15;;;;;;;43.80;22.88;;;2.00;92.80;;;;;;4993641;28;20037;-77
2023/02/11 12:04:04;;;;;;;45.67;22.50;;;2.10;92.30;;;;;;5004173;28;20022;-78
2023/02/11 12:06:45;;;;;;;46.67;22.77;;;2.10;93.10;;;;;;4984751;28;20563;-78
2023/02/11 12:09:25;;;;;;;45.17;22.58;;;2.10;94.80;;;;;;4977683;28;20483;-78
2023/02/11 12:12:13;;;;;;;39.05;22.15;;;2.10;96.30;;;;;;4983234;28;20152;-78
2023/02/11 12:14:53;;;;;;;45.40;23.70;;;2.00;97.20;;;;;;4995768;28;20181;-78
2023/02/11 12:17:28;;;;;;;60.58;28.55;;;2.00;99.00;;;;;;4978118;28;20038;-78
2023/02/11 12:20:35;;;;;;;51.30;25.20;;;2.00;99.90;;;;;;4975892;28;20527;-78
2023/02/11 12:23:29;;;;;;;42.20;23.23;;;2.00;99.90;;;;;;4993286;28;20395;-78
2023/02/11 12:25:57;;;;;;;;;;;1.90;99.90;;;;;;4976587;28;20026;-78
2023/02/11 12:28:26;;;;;;;43.58;23.40;;;1.80;99.90;;;;;;4975656;28;19940;-78
2023/02/11 12:31:31;;;;;;;46.33;24.65;;;1.70;99.90;;;;;;4975823;28;20121;-78
2023/02/11 12:34:33;;;;;;;45.47;24.17;;;1.60;99.90;;;;;;4975906;28;20105;-78
2023/02/11 12:37:01;;;;;;;51.88;27.65;;;1.50;99.90;;;;;;4993439;28;20030;-78
2023/02/11 12:39:45;;;;;;;51.80;26.48;;;1.50;99.90;;;;;;4994611;28;20030;-77
2023/02/11 12:45:31;;;;;;;42.42;23.50;;;1.40;99.90;;;;;;4994766;28;20033;-78
2023/02/11 12:48:08;;;;;;;48.72;26.08;;;1.50;99.90;;;;;;4995196;28;20105;-78
2023/02/11 12:50:40;;;;;;;47.50;27.85;;;1.50;99.90;;;;;;4977642;28;20085;-78
2023/02/11 12:53:12;;;;;;;47.88;25.55;;;1.50;99.90;;;;;;4977684;28;20018;-77